Aérodrome :
LOGIN :

S'inscrire | Disclaimer

   EN    FR    IT 

 










Légende :    VFR   VFR Marginal   IFR   IFR Intensif   IFR Très Intensif
Visi : 
Plafond : 
>= 8 km
>= 3000ft
5 à 8 km
1000 à 3000 ft
1500m à 5 km
500 à 1000 ft
800 à 1500m
200 à 500 ft
< 800m
< 200 ft
Symboles :   Orages  Brouillard  Fortes neiges  Fortes précipitations  Vent > 20 kt
SIGMETs :   Divers  Orages  Givrage  Turbulence  Onde Orograph.  Cendres Volcan.






- Altitude de l'aérodrome : 870 ft
- Code IATA : ETZ


LFJL - Metz Nancy Lorraine

DERNIER METAR :
  • 200300Z AUTO 29010KT 9999 BKN029 OVC035 04/02 Q1017 TEMPO BKN008

METARs EXPIRÉS :
  • 200230Z AUTO 29009KT 9999 BKN031 OVC037 04/02 Q1017 TEMPO BKN008
  • 200200Z AUTO 29009KT 9999 BKN032 BKN041 04/02 Q1017 TEMPO BKN008
  • 200130Z AUTO 29011KT 9999 OVC037 04/02 Q1016 TEMPO BKN008
  • 200100Z AUTO 28010KT 9999 OVC036 04/02 Q1016 NOSIG
  • 200030Z AUTO 28011KT 9999 BKN033 BKN039 04/03 Q1016 NOSIG
  • 200000Z AUTO 28009KT 9999 OVC035 04/03 Q1016 NOSIG
  • 192330Z AUTO 29008KT 9999 FEW021 BKN028 BKN033 04/03 Q1016 NOSIG
  • 192300Z AUTO 30010KT 9999 OVC029 05/03 Q1016 NOSIG
  • 192230Z AUTO 30012KT 9999 BKN029 OVC035 05/03 Q1016 NOSIG

TAF TAF LFJL
Valide du 20 à 00h jusqu'au 21 à 00h UTC


192300Z 2000/2024 30010KT CAVOK
PROB30
TEMPO 2003/2008 BKN008
TEMPO 2009/2018 -SHRA SCT020TCU
PROB40
TEMPO 2012/2018 32015G25KT



MET'MAP, la Météo Aéronautique d'un coup d'oeil ! - Copyright ORBIFLY Décembre 2007 - Disclaimer

ORBIFLY MET'MAP TEAM :

Programmation & Développement : Alexandra Zaïnal
Sur une idée originale de : Baudouin d'Aumeries
Soutien technique & logistique : Manuel Goepfert
Assistance : Marc-Olivier Méhu




SOURCES & CREDITS :

   NOAA